createdAt,value
2023-08-27T00:08:38.129Z,100084.13
2023-08-27T00:18:40.031Z,100109.63
2023-08-27T00:28:42.002Z,100108.72
2023-08-27T00:38:44.041Z,100144.31
2023-08-27T00:48:46.269Z,100162.34
2023-08-27T00:58:48.512Z,100166.09
2023-08-27T01:08:58.699Z,100135.41
2023-08-27T01:19:26.830Z,100148.66
2023-08-27T01:29:37.570Z,100164.88
2023-08-27T01:39:40.073Z,100198.91
2023-08-27T01:49:42.158Z,100228.25
2023-08-27T01:59:44.216Z,100233.94
2023-08-27T02:09:46.296Z,100191.66
2023-08-27T02:19:49.127Z,100172.31
2023-08-27T02:29:51.209Z,100163.44
2023-08-27T02:39:53.325Z,100196.00
2023-08-27T02:49:55.342Z,100188.66
2023-08-27T02:59:57.470Z,100173.19
2023-08-27T03:09:59.504Z,100141.00
2023-08-27T03:20:02.189Z,100136.22
2023-08-27T03:30:05.196Z,100118.97
2023-08-27T03:40:07.907Z,100098.38
2023-08-27T03:50:10.170Z,100047.31
2023-08-27T04:00:13.127Z,100071.97
2023-08-27T04:11:11.074Z,100070.94
2023-08-27T04:21:13.070Z,100091.53
2023-08-27T04:31:17.706Z,100101.19
2023-08-27T04:41:19.721Z,100089.84
2023-08-27T04:51:21.780Z,100092.63
2023-08-27T05:01:23.850Z,100099.41
2023-08-27T05:11:28.852Z,100102.41
2023-08-27T05:21:31.894Z,100097.25
2023-08-27T05:31:47.995Z,100111.44
2023-08-27T05:42:03.172Z,100120.75
2023-08-27T05:52:12.201Z,100116.06
2023-08-27T06:02:15.149Z,100096.84
2023-08-27T06:12:17.239Z,100074.91
2023-08-27T06:22:30.026Z,100075.66
2023-08-27T06:32:32.657Z,100070.50
2023-08-27T06:42:35.568Z,100070.63
2023-08-27T06:52:43.580Z,100076.97
2023-08-27T07:02:51.161Z,100081.22
2023-08-27T07:12:53.950Z,100058.00
2023-08-27T07:22:56.065Z,100062.69
2023-08-27T07:33:07.643Z,100072.72
2023-08-27T07:43:09.800Z,100065.94
2023-08-27T07:53:12.043Z,100062.69
2023-08-27T08:03:52.824Z,100089.31
2023-08-27T08:14:04.014Z,100060.06
2023-08-27T08:24:06.230Z,100034.38
2023-08-27T08:34:31.113Z,100040.22
2023-08-27T08:45:05.562Z,100042.69
2023-08-27T08:55:10.934Z,100018.78
2023-08-27T09:05:13.076Z,100020.28
2023-08-27T09:15:28.291Z,100001.97
2023-08-27T09:25:30.375Z,100029.94
2023-08-27T09:35:39.256Z,100007.84
2023-08-27T09:45:41.271Z,100000.66
2023-08-27T09:55:51.951Z,99983.69
2023-08-27T10:05:57.057Z,99949.34
2023-08-27T10:15:59.692Z,99959.38
2023-08-27T10:26:10.287Z,99943.50
2023-08-27T10:36:23.393Z,99942.53
2023-08-27T10:46:28.881Z,99917.19
2023-08-27T10:56:39.428Z,99927.16
2023-08-27T11:06:46.879Z,99918.16
2023-08-27T11:17:36.382Z,99935.19
2023-08-27T11:27:47.892Z,99931.09
2023-08-27T11:37:49.866Z,99905.25
2023-08-27T11:48:05.290Z,99854.06
2023-08-27T11:58:09.442Z,99870.38
2023-08-27T12:08:36.639Z,99884.59
2023-08-27T12:18:39.701Z,99875.34
2023-08-27T12:29:06.583Z,99872.22
2023-08-27T12:39:38.884Z,99836.66
2023-08-27T12:50:16.878Z,99828.84
2023-08-27T13:00:22.624Z,99822.34
2023-08-27T13:10:32.944Z,99809.72
2023-08-27T13:20:40.447Z,99805.13
2023-08-27T13:31:12.412Z,99828.25
2023-08-27T13:41:35.622Z,99833.41
2023-08-27T13:51:43.517Z,99830.31
2023-08-27T14:01:48.771Z,99792.78
2023-08-27T14:11:52.166Z,99793.88
2023-08-27T14:22:56.061Z,99795.00
2023-08-27T14:32:58.633Z,99787.28
2023-08-27T14:43:03.000Z,99788.88
2023-08-27T14:53:21.877Z,99796.69
2023-08-27T15:03:31.531Z,99786.66
2023-08-27T15:13:35.134Z,99770.84
2023-08-27T15:23:39.554Z,99767.44
2023-08-27T15:34:06.860Z,99765.56
2023-08-27T15:44:15.530Z,99764.84
2023-08-27T15:54:30.912Z,99747.53
2023-08-27T16:04:47.903Z,99739.81
2023-08-27T16:14:55.061Z,99732.91
2023-08-27T16:25:35.194Z,99726.38
2023-08-27T16:35:52.087Z,99719.84
2023-08-27T16:45:55.421Z,99730.22
2023-08-27T16:55:58.102Z,99719.78
2023-08-27T17:06:10.577Z,99735.75
2023-08-27T17:16:16.566Z,99725.34
2023-08-27T17:26:19.047Z,99709.19
2023-08-27T17:36:21.140Z,99699.38
2023-08-27T17:46:24.376Z,99701.66
2023-08-27T17:56:26.908Z,99704.88
2023-08-27T18:06:29.784Z,99699.84
2023-08-27T18:16:57.847Z,99720.00
2023-08-27T18:27:01.328Z,99727.97
2023-08-27T18:37:07.734Z,99730.97
2023-08-27T18:47:17.768Z,99713.19
2023-08-27T18:57:21.522Z,99714.88
2023-08-27T19:07:25.736Z,99713.06
2023-08-27T19:17:37.355Z,99717.38
2023-08-27T19:27:52.609Z,99708.66
2023-08-27T19:38:07.519Z,99685.63
2023-08-27T19:48:14.664Z,99664.91
2023-08-27T19:58:26.544Z,99655.56
2023-08-27T20:08:35.905Z,99666.38
2023-08-27T20:18:40.573Z,99641.53
2023-08-27T20:28:48.127Z,99635.13
2023-08-27T20:39:01.066Z,99614.47
2023-08-27T20:49:05.120Z,99610.09
2023-08-27T20:59:08.258Z,99609.72
2023-08-27T21:09:19.216Z,99633.63
2023-08-27T21:19:21.169Z,99643.16
2023-08-27T21:29:23.208Z,99630.31
2023-08-27T21:39:25.155Z,99632.41
2023-08-27T21:49:38.334Z,99633.34
2023-08-27T21:59:40.291Z,99629.78
2023-08-27T22:10:01.868Z,99622.59
2023-08-27T22:20:16.422Z,99639.06
2023-08-27T22:30:22.596Z,99658.84
2023-08-27T22:40:27.642Z,99659.88
2023-08-27T22:50:29.587Z,99683.16
2023-08-27T23:00:31.529Z,99706.50
2023-08-27T23:10:34.717Z,99703.75
2023-08-27T23:21:02.272Z,99753.56
2023-08-27T23:31:10.121Z,99753.94
2023-08-27T23:41:20.009Z,99775.66
2023-08-27T23:51:33.123Z,99807.72
